»·PEaware :: N364CM KSNA-KBUR

N364CM :: KSNA-KBUR

FLIGHT INFORMATION

Flight Status: Arrived
Operator: Privately registered:
United States
More flights under this callsign
Pilot: Brian S. (32023)
Aircraft: BEECH AIRCRAFT SUPER KING AIR 350
(B350)
More flights by this aircraft type
Origin: KSNA John Wayne-Orange Co
United States
Destination: KBUR Bob Hope-Burbank
United States
More flights between these airports :: More routes between these airports
Route: SLI V23 LAX LAX316R SILEX
File this flight plan on PilotEdge
Remarks:
Altitude:
(Current/Filed)
6,000ft
Speed:
(Current/Filed)
260kts
Departed: 21-Oct-20 09:18 PM
Arrived: 21-Oct-20 09:42 PM
Distance/Time
Traveled:
40nm/0:24
Distance/Time
To Go:
Arrived

Flight Plot

Page will automatically refresh every two minutes.


Map Options




Map Legend


Flown Route
Filed Route
Departure Airport
Arrival Airport
Navaid (VOR, NDB)
Fix

Horizontal Profiles

Position Reports

Time Latitude Longitude Heading Altitude Ground
Speed
21-Oct-20 20:54 33.672798 -117.872841 0 61ft 0kts
21-Oct-20 20:55 33.672775 -117.872855 207 61ft 0kts
21-Oct-20 20:56 33.672775 -117.872855 207 61ft 0kts
21-Oct-20 20:57 33.672775 -117.872855 207 61ft 0kts
21-Oct-20 20:58 33.672775 -117.872855 207 61ft 0kts
21-Oct-20 20:59 33.672775 -117.872855 207 61ft 0kts
21-Oct-20 21:00 33.672775 -117.872855 207 61ft 0kts
21-Oct-20 21:01 33.672775 -117.872855 207 61ft 0kts
21-Oct-20 21:02 33.672775 -117.872855 207 61ft 0kts
21-Oct-20 21:03 33.672775 -117.872855 207 61ft 0kts
21-Oct-20 21:04 33.672775 -117.872855 207 61ft 0kts
21-Oct-20 21:05 33.672775 -117.872855 207 61ft 0kts
21-Oct-20 21:06 33.672775 -117.872855 207 61ft 0kts
21-Oct-20 21:07 33.672775 -117.872855 207 61ft 0kts
21-Oct-20 21:08 33.672775 -117.872855 207 61ft 0kts
21-Oct-20 21:09 33.672775 -117.872855 207 61ft 0kts
21-Oct-20 21:10 33.672775 -117.872855 207 61ft 0kts
21-Oct-20 21:11 33.672775 -117.872855 207 61ft 0kts
21-Oct-20 21:12 33.673125 -117.871941 27 61ft 16kts
21-Oct-20 21:13 33.676874 -117.869559 27 61ft 19kts
21-Oct-20 21:14 33.681185 -117.866916 61 61ft 0kts
21-Oct-20 21:15 33.681215 -117.866563 96 61ft 0kts
21-Oct-20 21:16 33.680885 -117.865789 141 61ft 19kts
21-Oct-20 21:17 33.678121 -117.867298 209 61ft 56kts
21-Oct-20 21:18 33.650156 -117.879846 186 279ft 157kts
21-Oct-20 21:19 33.603495 -117.886734 186 1256ft 172kts
21-Oct-20 21:20 33.585701 -117.922698 324 2013ft 174kts
21-Oct-20 21:21 33.628016 -117.950898 309 2794ft 177kts
21-Oct-20 21:22 33.658458 -117.997595 307 3725ft 179kts
21-Oct-20 21:23 33.688837 -118.045367 307 4607ft 181kts
21-Oct-20 21:24 33.719704 -118.093990 307 5434ft 183kts
21-Oct-20 21:25 33.750746 -118.142952 307 6100ft 191kts
21-Oct-20 21:26 33.785830 -118.198352 307 6091ft 220kts
21-Oct-20 21:27 33.824172 -118.259009 307 6086ft 232kts
21-Oct-20 21:28 33.863767 -118.321757 307 6064ft 237kts
21-Oct-20 21:29 33.903768 -118.385261 307 6064ft 238kts
21-Oct-20 21:30 33.948862 -118.442370 330 6089ft 237kts
21-Oct-20 21:31 34.007025 -118.481365 331 6063ft 239kts
21-Oct-20 21:32 34.066213 -118.521029 331 5511ft 257kts
21-Oct-20 21:33 34.118750 -118.556299 331 5053ft 164kts
21-Oct-20 21:34 34.158869 -118.583245 331 5067ft 171kts
21-Oct-20 21:35 34.195384 -118.578843 62 3730ft 152kts
21-Oct-20 21:36 34.199807 -118.532743 91 3063ft 134kts
21-Oct-20 21:37 34.199247 -118.486556 91 2697ft 136kts
21-Oct-20 21:38 34.198858 -118.447753 90 2014ft 108kts
21-Oct-20 21:39 34.198399 -118.409923 91 1449ft 118kts
21-Oct-20 21:40 34.197908 -118.371261 92 788ft 107kts
21-Oct-20 21:41 34.197700 -118.353785 89 701ft 27kts
21-Oct-20 21:42 34.198809 -118.353227 269 702ft 13kts
21-Oct-20 21:43 34.199880 -118.358173 347 719ft 17kts
21-Oct-20 21:44 34.202527 -118.359725 206 733ft 3kts
21-Oct-20 21:45 34.202327 -118.359656 83 732ft 0kts
21-Oct-20 21:46 34.202327 -118.359656 83 732ft 0kts
21-Oct-20 21:48 34.202326 -118.359657 83 732ft 0kts

Navigation Log

Ident Type
Flight plan parsing failed, navigation log unavailable